createdAt,value
2023-12-09T00:01:45.408Z,100087.20
2023-12-09T00:04:32.130Z,100081.17
2023-12-09T00:07:18.752Z,100076.34
2023-12-09T00:10:05.691Z,100079.10
2023-12-09T00:12:52.156Z,100075.23
2023-12-09T00:15:38.630Z,100076.94
2023-12-09T00:18:25.538Z,100070.70
2023-12-09T00:21:11.915Z,100064.14
2023-12-09T00:23:59.685Z,100068.45
2023-12-09T00:26:46.179Z,100064.63
2023-12-09T00:29:32.941Z,100061.52
2023-12-09T00:32:19.378Z,100055.82
2023-12-09T00:35:06.437Z,100047.80
2023-12-09T00:37:53.739Z,100042.57
2023-12-09T00:40:40.424Z,100049.02
2023-12-09T00:43:26.688Z,100048.31
2023-12-09T00:46:13.487Z,100045.53
2023-12-09T00:48:59.927Z,100045.76
2023-12-09T00:51:46.673Z,100043.84
2023-12-09T00:54:33.287Z,100047.79
2023-12-09T00:57:21.461Z,100041.39
2023-12-09T01:00:08.549Z,100041.57
2023-12-09T01:02:55.161Z,100045.90
2023-12-09T01:05:42.217Z,100048.32
2023-12-09T01:08:29.697Z,100042.92
2023-12-09T01:11:16.181Z,100041.00
2023-12-09T01:14:02.560Z,100033.70
2023-12-09T01:16:49.199Z,100039.45
2023-12-09T01:19:35.615Z,100035.46
2023-12-09T01:22:22.309Z,100024.73
2023-12-09T01:25:09.306Z,100029.55
2023-12-09T01:27:55.831Z,100034.59
2023-12-09T01:30:42.472Z,100021.54
2023-12-09T01:33:29.171Z,100018.91
2023-12-09T01:36:15.748Z,100016.16
2023-12-09T01:39:02.857Z,100015.63
2023-12-09T01:41:49.443Z,100014.26
2023-12-09T01:44:36.199Z,100013.34
2023-12-09T01:47:23.154Z,100019.32
2023-12-09T01:50:11.341Z,100015.92
2023-12-09T01:52:58.967Z,100009.55
2023-12-09T01:55:45.786Z,100008.14
2023-12-09T01:58:34.492Z,100008.73
2023-12-09T02:01:20.661Z,99996.58
2023-12-09T02:04:07.885Z,99996.64
2023-12-09T02:06:54.129Z,99985.18
2023-12-09T02:09:40.716Z,99986.37
2023-12-09T02:12:48.554Z,99988.13
2023-12-09T02:15:48.308Z,99988.66
2023-12-09T02:18:36.506Z,99983.73
2023-12-09T02:21:23.172Z,99982.85
2023-12-09T02:24:11.026Z,99970.33
2023-12-09T02:27:28.159Z,99958.35
2023-12-09T02:30:26.168Z,99956.96
2023-12-09T02:33:15.561Z,99953.27
2023-12-09T02:36:04.120Z,99966.48
2023-12-09T02:38:52.428Z,99963.64
2023-12-09T02:41:41.195Z,99954.39
2023-12-09T02:44:28.033Z,99950.38
2023-12-09T02:47:14.831Z,99949.70
2023-12-09T02:50:01.718Z,99951.77
2023-12-09T02:52:48.339Z,99953.59
2023-12-09T02:55:34.620Z,99958.05
2023-12-09T02:58:21.191Z,99956.70
2023-12-09T03:01:07.455Z,99948.89
2023-12-09T03:03:54.059Z,99942.27
2023-12-09T03:06:43.040Z,99953.36
2023-12-09T03:09:29.316Z,99956.97
2023-12-09T03:12:16.320Z,99952.12
2023-12-09T03:15:05.990Z,99945.48
2023-12-09T03:17:53.525Z,99935.64
2023-12-09T03:20:40.357Z,99939.30
2023-12-09T03:23:26.943Z,99935.15
2023-12-09T03:26:15.557Z,99934.62
2023-12-09T03:29:01.902Z,99931.09
2023-12-09T03:31:49.345Z,99933.10
2023-12-09T03:34:35.691Z,99944.27
2023-12-09T03:37:22.007Z,99939.41
2023-12-09T03:40:10.681Z,99941.33
2023-12-09T03:42:57.385Z,99932.80
2023-12-09T03:45:43.726Z,99932.77
2023-12-09T03:48:31.787Z,99928.11
2023-12-09T03:51:18.691Z,99932.61
2023-12-09T03:54:05.429Z,99928.64
2023-12-09T03:56:51.586Z,99926.75
2023-12-09T03:59:42.987Z,99934.75
2023-12-09T04:02:29.726Z,99934.04
2023-12-09T04:05:16.460Z,99932.08
2023-12-09T04:08:02.977Z,99931.50
2023-12-09T04:10:49.248Z,99920.14
2023-12-09T04:13:35.657Z,99923.92
2023-12-09T04:16:23.630Z,99918.36
2023-12-09T04:19:10.810Z,99914.65
2023-12-09T04:21:57.602Z,99912.63
2023-12-09T04:24:44.017Z,99909.23
2023-12-09T04:27:30.349Z,99896.23
2023-12-09T04:30:17.128Z,99903.40
2023-12-09T04:33:05.172Z,99901.30
2023-12-09T04:35:51.948Z,99898.31
2023-12-09T04:38:39.043Z,99902.41
2023-12-09T04:41:25.538Z,99898.45
2023-12-09T04:44:11.750Z,99900.70
2023-12-09T04:46:58.072Z,99895.67
2023-12-09T04:49:44.537Z,99896.36
2023-12-09T04:52:31.292Z,99900.37
2023-12-09T04:55:17.647Z,99909.33
2023-12-09T04:58:04.066Z,99910.86
2023-12-09T05:00:51.132Z,99907.71
2023-12-09T05:03:37.450Z,99906.16
2023-12-09T05:06:23.746Z,99896.73
2023-12-09T05:09:11.020Z,99895.77
2023-12-09T05:11:57.270Z,99894.68
2023-12-09T05:14:44.041Z,99893.86
2023-12-09T05:17:30.815Z,99891.79
2023-12-09T05:20:17.258Z,99886.38
2023-12-09T05:23:05.885Z,99886.92
2023-12-09T05:25:53.960Z,99882.61
2023-12-09T05:28:40.274Z,99882.05
2023-12-09T05:31:27.053Z,99883.87
2023-12-09T05:34:13.642Z,99881.77
2023-12-09T05:37:00.241Z,99883.50
2023-12-09T05:39:46.960Z,99890.08
2023-12-09T05:42:34.018Z,99888.16
2023-12-09T05:45:20.520Z,99882.56
2023-12-09T05:48:07.512Z,99881.29
2023-12-09T05:50:54.114Z,99879.84
2023-12-09T05:53:41.985Z,99883.78
2023-12-09T05:56:29.342Z,99886.20
2023-12-09T05:59:15.896Z,99882.91
2023-12-09T06:02:03.781Z,99882.73
2023-12-09T06:04:50.350Z,99885.33
2023-12-09T06:07:36.878Z,99888.04
2023-12-09T06:10:23.513Z,99889.14
2023-12-09T06:13:10.354Z,99899.88
2023-12-09T06:15:57.294Z,99894.69
2023-12-09T06:18:43.805Z,99887.25
2023-12-09T06:21:30.543Z,99874.64
2023-12-09T06:24:19.138Z,99883.77
2023-12-09T06:27:06.389Z,99891.25
2023-12-09T06:29:53.062Z,99892.60
2023-12-09T06:32:39.735Z,99891.80
2023-12-09T06:35:26.216Z,99882.04
2023-12-09T06:38:12.408Z,99884.39
2023-12-09T06:40:58.825Z,99892.55
2023-12-09T06:43:45.279Z,99894.79
2023-12-09T06:46:31.804Z,99894.93
2023-12-09T06:49:19.089Z,99884.53
2023-12-09T06:52:05.766Z,99886.14
2023-12-09T06:54:52.735Z,99889.59
2023-12-09T06:57:39.249Z,99879.05
2023-12-09T07:00:25.923Z,99878.93
2023-12-09T07:03:12.357Z,99877.45
2023-12-09T07:05:58.842Z,99876.25
2023-12-09T07:08:45.734Z,99877.11
2023-12-09T07:11:33.390Z,99875.02
2023-12-09T07:14:20.092Z,99865.23
2023-12-09T07:17:06.494Z,99865.08
2023-12-09T07:19:53.498Z,99865.40
2023-12-09T07:22:39.862Z,99868.64
2023-12-09T07:25:27.793Z,99871.77
2023-12-09T07:28:14.046Z,99870.96
2023-12-09T07:31:00.828Z,99860.14
2023-12-09T07:33:47.440Z,99865.48
2023-12-09T07:36:33.920Z,99864.77
2023-12-09T07:39:20.095Z,99863.82
2023-12-09T07:42:06.621Z,99852.20
2023-12-09T07:44:52.952Z,99859.16
2023-12-09T07:47:39.621Z,99854.41
2023-12-09T07:50:26.399Z,99851.56
2023-12-09T07:53:13.761Z,99851.19
2023-12-09T07:56:00.468Z,99846.68
2023-12-09T07:58:47.121Z,99846.85
2023-12-09T08:01:34.502Z,99846.68
2023-12-09T08:04:21.211Z,99850.70
2023-12-09T08:07:07.897Z,99842.13
2023-12-09T08:09:54.687Z,99838.23
2023-12-09T08:12:41.671Z,99837.67
2023-12-09T08:15:28.656Z,99836.21
2023-12-09T08:18:15.734Z,99840.16
2023-12-09T08:21:02.811Z,99839.33
2023-12-09T08:23:49.402Z,99849.89
2023-12-09T08:26:37.634Z,99845.52
2023-12-09T08:29:25.839Z,99842.30
2023-12-09T08:32:14.593Z,99838.44
2023-12-09T08:35:07.553Z,99840.77
2023-12-09T08:37:57.630Z,99838.71
2023-12-09T08:40:44.124Z,99840.42
2023-12-09T08:43:30.568Z,99841.23
2023-12-09T08:46:17.261Z,99826.45
2023-12-09T08:49:03.914Z,99825.52
2023-12-09T08:51:50.648Z,99823.89
2023-12-09T08:54:37.316Z,99821.83
2023-12-09T08:57:25.308Z,99819.52
2023-12-09T09:00:12.659Z,99813.38
2023-12-09T09:02:59.395Z,99811.12
2023-12-09T09:05:45.915Z,99809.30
2023-12-09T09:08:32.325Z,99807.88
2023-12-09T09:11:18.644Z,99802.45
2023-12-09T09:14:05.410Z,99800.70
2023-12-09T09:16:52.261Z,99789.47
2023-12-09T09:19:38.759Z,99794.52
2023-12-09T09:22:25.576Z,99790.98
2023-12-09T09:25:12.904Z,99788.39
2023-12-09T09:27:59.503Z,99782.92
2023-12-09T09:30:46.326Z,99777.35
2023-12-09T09:33:32.971Z,99779.10
2023-12-09T09:36:23.511Z,99771.73
2023-12-09T09:39:11.675Z,99778.55
2023-12-09T09:42:38.278Z,99765.71
2023-12-09T09:45:30.535Z,99758.23
2023-12-09T09:48:24.409Z,99766.67
2023-12-09T09:51:16.364Z,99762.65
2023-12-09T09:54:20.665Z,99762.73
2023-12-09T09:57:08.737Z,99755.30
2023-12-09T09:59:58.546Z,99754.75
2023-12-09T10:02:51.887Z,99756.35
2023-12-09T10:05:39.671Z,99754.22
2023-12-09T10:08:26.191Z,99750.69
2023-12-09T10:11:12.496Z,99747.37
2023-12-09T10:13:58.750Z,99745.39
2023-12-09T10:16:45.936Z,99743.46
2023-12-09T10:19:36.190Z,99739.46
2023-12-09T10:22:22.935Z,99733.48
2023-12-09T10:25:09.475Z,99730.58
2023-12-09T10:27:56.767Z,99724.81
2023-12-09T10:30:43.428Z,99716.38
2023-12-09T10:33:31.545Z,99715.45
2023-12-09T10:36:18.453Z,99709.88
2023-12-09T10:39:09.345Z,99701.48
2023-12-09T10:41:58.254Z,99703.37
2023-12-09T10:44:44.589Z,99701.57
2023-12-09T10:47:31.563Z,99698.73
2023-12-09T10:50:17.986Z,99692.79
2023-12-09T10:53:06.092Z,99690.16
2023-12-09T10:55:52.980Z,99691.15
2023-12-09T10:58:41.281Z,99687.32
2023-12-09T11:01:29.441Z,99688.11
2023-12-09T11:04:16.395Z,99688.04
2023-12-09T11:07:05.741Z,99684.35
2023-12-09T11:09:52.718Z,99676.17
2023-12-09T11:12:41.486Z,99676.70
2023-12-09T11:15:33.955Z,99675.51
2023-12-09T11:18:20.686Z,99668.84
2023-12-09T11:21:08.864Z,99675.46
2023-12-09T11:23:58.615Z,99673.33
2023-12-09T11:26:46.513Z,99671.17
2023-12-09T11:29:34.224Z,99669.44
2023-12-09T11:32:21.413Z,99663.98
2023-12-09T11:35:08.191Z,99658.98
2023-12-09T11:37:58.561Z,99653.97
2023-12-09T11:40:46.097Z,99652.01
2023-12-09T11:43:32.574Z,99650.55
2023-12-09T11:46:19.998Z,99648.15
2023-12-09T11:49:07.972Z,99647.10
2023-12-09T11:51:54.727Z,99648.11
2023-12-09T11:54:43.483Z,99650.91
2023-12-09T11:57:31.768Z,99653.52
2023-12-09T12:00:19.387Z,99650.33
2023-12-09T12:03:05.964Z,99646.92
2023-12-09T12:05:52.540Z,99644.14
2023-12-09T12:08:38.677Z,99649.30
2023-12-09T12:11:25.900Z,99646.17
2023-12-09T12:14:12.319Z,99646.55
2023-12-09T12:17:02.092Z,99644.83
2023-12-09T12:19:48.677Z,99641.89
2023-12-09T12:22:35.603Z,99644.75
2023-12-09T12:25:26.006Z,99643.33
2023-12-09T12:28:15.275Z,99637.83
2023-12-09T12:31:01.554Z,99635.81
2023-12-09T12:33:48.160Z,99635.55
2023-12-09T12:36:36.097Z,99637.16
2023-12-09T12:39:24.426Z,99641.07
2023-12-09T12:42:12.600Z,99635.31
2023-12-09T12:45:00.030Z,99629.08
2023-12-09T12:47:47.672Z,99625.91
2023-12-09T12:50:33.966Z,99625.78
2023-12-09T12:53:23.545Z,99624.73
2023-12-09T12:56:10.241Z,99613.09
2023-12-09T12:58:57.190Z,99611.23
2023-12-09T13:01:43.655Z,99604.70
2023-12-09T13:04:30.219Z,99601.21
2023-12-09T13:07:17.504Z,99590.44
2023-12-09T13:10:04.686Z,99587.80
2023-12-09T13:12:51.260Z,99584.65
2023-12-09T13:15:37.748Z,99586.43
2023-12-09T13:18:24.997Z,99585.77
2023-12-09T13:21:11.899Z,99580.14
2023-12-09T13:23:58.747Z,99581.23
2023-12-09T13:26:45.215Z,99585.84
2023-12-09T13:29:31.780Z,99583.45
2023-12-09T13:32:18.600Z,99578.44
2023-12-09T13:35:06.631Z,99572.55
2023-12-09T13:37:53.860Z,99569.98
2023-12-09T13:40:45.585Z,99568.16
2023-12-09T13:43:32.111Z,99566.17
2023-12-09T13:46:18.756Z,99562.55
2023-12-09T13:49:05.759Z,99565.94
2023-12-09T13:51:52.949Z,99561.52
2023-12-09T13:54:39.890Z,99565.99
2023-12-09T13:57:26.524Z,99564.45
2023-12-09T14:00:13.715Z,99566.55
2023-12-09T14:03:00.162Z,99566.97
2023-12-09T14:05:47.240Z,99564.09
2023-12-09T14:08:35.030Z,99557.33
2023-12-09T14:11:23.466Z,99557.13
2023-12-09T14:14:10.160Z,99559.89
2023-12-09T14:16:56.637Z,99559.73
2023-12-09T14:19:43.834Z,99557.95
2023-12-09T14:22:31.728Z,99554.29
2023-12-09T14:25:18.265Z,99551.85
2023-12-09T14:28:04.696Z,99548.05
2023-12-09T14:30:51.713Z,99546.46
2023-12-09T14:33:38.839Z,99540.41
2023-12-09T14:36:25.751Z,99534.84
2023-12-09T14:39:12.569Z,99536.02
2023-12-09T14:41:59.406Z,99527.99
2023-12-09T14:44:45.947Z,99532.04
2023-12-09T14:47:32.324Z,99532.46
2023-12-09T14:50:18.645Z,99528.98
2023-12-09T14:53:07.857Z,99523.08
2023-12-09T14:55:54.547Z,99520.96
2023-12-09T14:58:41.126Z,99522.39
2023-12-09T15:01:27.894Z,99513.67
2023-12-09T15:04:14.899Z,99512.60
2023-12-09T15:07:01.630Z,99508.24
2023-12-09T15:09:48.601Z,99503.56
2023-12-09T15:12:36.469Z,99506.28
2023-12-09T15:15:23.672Z,99502.77
2023-12-09T15:18:11.420Z,99500.27
2023-12-09T15:20:58.353Z,99497.02
2023-12-09T15:23:45.173Z,99488.60
2023-12-09T15:26:32.290Z,99481.29
2023-12-09T15:29:18.873Z,99478.02
2023-12-09T15:32:06.492Z,99471.34
2023-12-09T15:34:53.491Z,99464.92
2023-12-09T15:37:41.383Z,99464.14
2023-12-09T15:40:28.268Z,99470.73
2023-12-09T15:43:14.649Z,99469.67
2023-12-09T15:46:01.552Z,99470.71
2023-12-09T15:48:48.364Z,99465.54
2023-12-09T15:51:34.957Z,99456.74
2023-12-09T15:54:21.995Z,99458.88
2023-12-09T15:57:08.680Z,99455.52
2023-12-09T15:59:55.932Z,99454.39
2023-12-09T16:02:43.726Z,99450.48
2023-12-09T16:05:30.670Z,99449.34
2023-12-09T16:08:17.492Z,99452.48
2023-12-09T16:11:05.500Z,99443.40
2023-12-09T16:13:52.343Z,99443.10
2023-12-09T16:16:38.952Z,99436.05
2023-12-09T16:19:25.371Z,99432.02
2023-12-09T16:22:13.135Z,99421.94
2023-12-09T16:24:59.937Z,99432.27
2023-12-09T16:27:46.918Z,99430.51
2023-12-09T16:30:33.299Z,99429.43
2023-12-09T16:33:20.057Z,99434.82
2023-12-09T16:36:08.172Z,99437.30
2023-12-09T16:38:54.706Z,99432.16
2023-12-09T16:41:41.323Z,99422.04
2023-12-09T16:44:27.712Z,99415.29
2023-12-09T16:47:13.973Z,99412.34
2023-12-09T16:50:05.288Z,99416.77
2023-12-09T16:52:52.515Z,99412.60
2023-12-09T16:55:38.628Z,99411.69
2023-12-09T16:58:25.736Z,99408.81
2023-12-09T17:01:12.151Z,99404.58
2023-12-09T17:03:58.931Z,99394.79
2023-12-09T17:06:45.828Z,99390.80
2023-12-09T17:09:33.150Z,99389.52
2023-12-09T17:12:19.525Z,99388.62
2023-12-09T17:15:08.180Z,99380.88
2023-12-09T17:17:55.766Z,99373.07
2023-12-09T17:20:42.463Z,99363.71
2023-12-09T17:23:28.958Z,99363.64
2023-12-09T17:26:15.947Z,99367.46
2023-12-09T17:29:04.033Z,99369.29
2023-12-09T17:31:50.530Z,99368.89
2023-12-09T17:34:37.385Z,99369.41
2023-12-09T17:37:24.055Z,99357.11
2023-12-09T17:40:10.901Z,99357.12
2023-12-09T17:42:57.746Z,99346.81
2023-12-09T17:45:44.238Z,99347.92
2023-12-09T17:48:30.998Z,99353.56
2023-12-09T17:51:17.927Z,99344.80
2023-12-09T17:54:06.576Z,99342.22
2023-12-09T17:56:54.764Z,99337.48
2023-12-09T17:59:41.125Z,99340.19
2023-12-09T18:02:27.954Z,99334.77
2023-12-09T18:05:14.989Z,99334.81
2023-12-09T18:08:01.338Z,99329.27
2023-12-09T18:10:47.685Z,99317.58
2023-12-09T18:13:33.842Z,99310.91
2023-12-09T18:16:20.997Z,99307.48
2023-12-09T18:19:07.956Z,99298.21
2023-12-09T18:21:54.727Z,99294.27
2023-12-09T18:24:41.624Z,99293.04
2023-12-09T18:27:29.756Z,99289.34
2023-12-09T18:30:19.992Z,99280.00
2023-12-09T18:33:06.940Z,99283.59
2023-12-09T18:35:53.471Z,99277.31
2023-12-09T18:38:40.030Z,99272.59
2023-12-09T18:41:26.900Z,99268.33
2023-12-09T18:44:13.610Z,99260.35
2023-12-09T18:47:00.299Z,99259.70
2023-12-09T18:49:46.901Z,99259.27
2023-12-09T18:52:33.640Z,99256.98
2023-12-09T18:55:20.166Z,99258.73
2023-12-09T18:58:08.031Z,99252.92
2023-12-09T19:01:04.523Z,99248.33
2023-12-09T19:03:54.259Z,99248.63
2023-12-09T19:06:46.155Z,99247.58
2023-12-09T19:09:40.428Z,99253.04
2023-12-09T19:12:27.802Z,99248.64
2023-12-09T19:15:14.866Z,99239.46
2023-12-09T19:18:01.582Z,99236.02
2023-12-09T19:20:48.500Z,99230.66
2023-12-09T19:23:35.214Z,99226.95
2023-12-09T19:26:22.021Z,99224.94
2023-12-09T19:29:08.752Z,99223.17
2023-12-09T19:31:55.174Z,99223.67
2023-12-09T19:34:41.835Z,99228.13
2023-12-09T19:37:28.604Z,99229.33
2023-12-09T19:40:15.138Z,99222.71
2023-12-09T19:43:01.707Z,99222.00
2023-12-09T19:45:48.212Z,99225.84
2023-12-09T19:48:35.307Z,99215.88
2023-12-09T19:51:21.662Z,99215.31
2023-12-09T19:54:11.042Z,99203.77
2023-12-09T19:57:01.232Z,99203.15
2023-12-09T19:59:48.052Z,99196.77
2023-12-09T20:02:34.527Z,99188.68
2023-12-09T20:05:22.508Z,99186.20
2023-12-09T20:08:09.242Z,99178.89
2023-12-09T20:10:56.022Z,99178.45
2023-12-09T20:13:44.845Z,99186.06
2023-12-09T20:16:35.311Z,99181.64
2023-12-09T20:19:25.488Z,99180.30
2023-12-09T20:22:15.140Z,99185.01
2023-12-09T20:25:02.768Z,99185.06
2023-12-09T20:27:49.783Z,99179.90
2023-12-09T20:30:37.302Z,99177.50
2023-12-09T20:33:24.917Z,99172.84
2023-12-09T20:36:12.281Z,99169.75
2023-12-09T20:38:58.947Z,99168.13
2023-12-09T20:41:45.792Z,99164.25
2023-12-09T20:44:32.250Z,99164.91
2023-12-09T20:47:18.674Z,99165.13
2023-12-09T20:50:05.697Z,99155.55
2023-12-09T20:52:52.163Z,99153.17
2023-12-09T20:55:39.641Z,99155.08
2023-12-09T20:58:26.920Z,99148.87
2023-12-09T21:01:14.162Z,99149.50
2023-12-09T21:04:01.150Z,99147.98
2023-12-09T21:06:48.641Z,99132.81
2023-12-09T21:09:35.513Z,99122.05
2023-12-09T21:12:22.125Z,99121.42
2023-12-09T21:15:08.967Z,99126.46
2023-12-09T21:17:56.454Z,99126.52
2023-12-09T21:20:43.075Z,99130.40
2023-12-09T21:23:29.885Z,99130.27
2023-12-09T21:26:16.591Z,99132.55
2023-12-09T21:29:03.117Z,99134.08
2023-12-09T21:31:49.896Z,99136.75
2023-12-09T21:34:36.377Z,99136.34
2023-12-09T21:37:22.773Z,99143.85
2023-12-09T21:40:10.128Z,99144.46
2023-12-09T21:42:56.771Z,99153.70
2023-12-09T21:45:42.959Z,99145.02
2023-12-09T21:48:29.841Z,99141.60
2023-12-09T21:51:17.766Z,99134.25
2023-12-09T21:54:04.486Z,99128.04
2023-12-09T21:56:51.603Z,99117.27
2023-12-09T21:59:38.523Z,99115.69
2023-12-09T22:02:24.731Z,99106.64
2023-12-09T22:05:12.423Z,99107.19
2023-12-09T22:08:01.185Z,99106.11
2023-12-09T22:10:47.987Z,99102.36
2023-12-09T22:13:34.424Z,99094.63
2023-12-09T22:16:21.615Z,99090.77
2023-12-09T22:19:09.211Z,99073.36
2023-12-09T22:21:55.585Z,99072.37
2023-12-09T22:24:42.413Z,99072.66
2023-12-09T22:27:29.507Z,99061.17
2023-12-09T22:30:16.656Z,99058.96
2023-12-09T22:33:03.371Z,99052.44
2023-12-09T22:35:49.937Z,99049.30
2023-12-09T22:38:36.712Z,99053.71
2023-12-09T22:41:23.888Z,99045.92
2023-12-09T22:44:10.299Z,99048.27
2023-12-09T22:46:57.677Z,99042.09
2023-12-09T22:49:44.621Z,99042.75
2023-12-09T22:52:31.639Z,99037.82
2023-12-09T22:55:18.371Z,99030.86
2023-12-09T22:58:04.812Z,99026.75
2023-12-09T23:00:51.903Z,99017.61
2023-12-09T23:03:38.543Z,99012.53
2023-12-09T23:06:24.995Z,99007.02
2023-12-09T23:09:11.881Z,98995.35
2023-12-09T23:11:58.280Z,99003.21
2023-12-09T23:14:44.672Z,98996.61
2023-12-09T23:17:31.503Z,98993.40
2023-12-09T23:20:18.656Z,98996.70
2023-12-09T23:23:05.331Z,99000.95
2023-12-09T23:25:53.733Z,99001.64
2023-12-09T23:28:40.005Z,99000.00
2023-12-09T23:31:32.002Z,99001.19
2023-12-09T23:34:26.436Z,99000.81
2023-12-09T23:37:13.472Z,99007.27
2023-12-09T23:40:00.398Z,99010.84
2023-12-09T23:42:46.848Z,99016.02
2023-12-09T23:45:33.964Z,99015.88
2023-12-09T23:48:21.060Z,99015.10
2023-12-09T23:51:07.909Z,99027.87
2023-12-09T23:53:54.354Z,99026.41
2023-12-09T23:56:41.240Z,99024.80
2023-12-09T23:59:27.822Z,99025.23
